Browning, IL (62624)

1:01 PM CDT on August 30, 2015 (GMT -0500)
APRSWXNET | | Change Station
CLOSE
Current Station
Personal Weather Station
Location: Bader, IL
Elevation: 649 ft
Nearby Weather Stations

Elev 649 ft 40.14 °N, 90.42 °W | Updated 26 minutes ago

Mostly Cloudy
Mostly Cloudy
82 °F
Feels Like 87 °F
N
1
Wind Variable Wind from East
Gusts 5.0 mph

Today
High -- | Low -- °F
--% Chance of Precip.
Yesterday
High -- | Low -- °F
Precip. -- in
6:26 AM 7:36 PM
Full, 99% visible
Pressure 30.05 in
Visibility 10.0 miles
Clouds Mostly Cloudy 3900 ft
Mostly Cloudy 5000 ft
Heat Index 87 °F
Dew Point 73 °F
Humidity 74%
Rainfall in
Snow Depth Not available.
UV 5 out of 12
Pollen 10.30 out of 12
Air Quality Not available.
Flu Activity Not available.
METAR KIJX 301735Z AUTO 00000KT 10SM BKN039 BKN050 29/22 A3005 RMK AO2 T02870222
Pressure 30.05 in
Visibility 10.0 miles
Clouds Mostly Cloudy 3900 ft
Mostly Cloudy 5000 ft
Heat Index 87 °F
Dew Point 73 °F
Humidity 74%
Rainfall in
Snow Depth Not available.
UV 5 out of 12
Pollen 10.30 out of 12
Air Quality Not available.
Flu Activity Not available.
METAR KIJX 301735Z AUTO 00000KT 10SM BKN039 BKN050 29/22 A3005 RMK AO2 T02870222

10-Day Weather Forecast

×

Almanac

Astronomy

Aug. 30, 2015 Rise Set
Actual Time
Civil Twilight
Nautical Twilight
Astronomical Twilight
Moon
Length of Visible Light
Length of Day
Tomorrow will be .
, % of the Moon is Illuminated

Today's Extremes

State Highs State Lows

Community

WunderPhotos

Upload Photos

1,851,021 photos uploaded!

WunderBlogs® & News

Nearby

Air Quality

  Air Quality AQ Index Pollutant
Not available.

Snow Depth

Station Depth Elevation

Earthquake Activity

City Distance Mag. Time & Date
Minimum magnitude displayed is 2.5.

Coastal Water Temperatures

Place Temperature

Stations

Nearby Weather Stations

Station Location Temp. Windchill Dew Point Humidity Wind Precip. Elev Updated Type